Detall de PIREP

Printer-friendly versionPDF version

[2010/12/04 14:29:00]
Flight IATA:CT2104
Pilot Number:026
Company ICAO:CAT
Aircraft Type:DC85/A
PAX:136
Departing Airport: LEVC
Destination Airport: LEBB
Alternate Airport:LEMD
Online: VATSIM
Route:SOPET/N0330F320 UN609 GEMAS/N0410F310 UM601 PPN/N0290F190 G23 CEGAM
Flight Level:FL320
No Slew and time accel
No pause
Crash detect
Detect pilot in Cockpit between each 30 and 45 minutes
14:29 Zero fuel Weight: 178309 Lbs, Fuel Weight: 29973 Lbs
14:29 VATSIM:LEVC 041400Z 11003KT 070V160 CAVOK 12/M05 Q1020 NOSIG
14:29 VATSIM:LEBB 041400Z 18013G23KT 150V230 CAVOK 09/M00 Q1015 NOSIG
14:30 VOICE CATALONIAN / LEVC HUB ROUTE CT2104
14:37 Parking Brakes off
14:52 Take-off
14:52 Take off Weight: 206509 Lbs
14:52 Wind: 142º @ 006 Knots Heading: 115º
14:52 POS N39º 29´ 12´´ W000º 28´ 31´´
14:52 Flaps:3 at 169 Knots
14:52 Gear Up: 170 Knots
14:53 Flaps:2 at 179 Knots
14:54 Flaps:1 at 187 Knots
14:54 Flaps:0 at 236 Knots
15:05 TOC
15:05 Fuel Weight: 23642 Lb
15:07 Wind:137º@014 Knots Heading: 017º Ground Speed: 466 Knots Altitude 32194 ft
15:15 TOD
15:15 Fuel Weight: 21319 Lb
15:22 Wind:109º@022 Knots Heading: 296º Ground Speed: 474 Knots Altitude 31072 ft
15:37 Wind:165º@015 Knots Heading: 300º Ground Speed: 323 Knots Altitude 10042 ft
15:46 Flaps:1 at 205 Knots
15:49 Flaps:2 at 172 Knots
15:49 Gear Down: 179 Knots
15:50 Flaps:3 at 182 Knots
15:52 Wind:181º@017 Knots Heading: 121º Ground Speed: 147 Knots Altitude 912 ft
15:52 Flaps:4 at 156 Knots
15:53 TouchDown:Rate -98 ft/min Speed: 135 Knots
15:53 VATSIM:LEBB 041530Z 18017G27KT 140V220 CAVOK 08/M02 Q1014 WS ALL RWY NOSIG
15:53 Land
15:53 Wind:183º@017 Knots
15:53 Heading: 117º
15:53 Flight Duration: 01:01
15:53 Landing Weight: 194853 Lbs
15:53 POS N43º 17´ 59´´ W002º 54´ 25´´
15:58 Parking brakes on
15:58 Block to Block Duration: 01:21
15:58 Final Fuel: 16064 Lbls
15:58 Spent Fuel: 13908 Lbls
15:58 Flight Length: 374 NM
15:58 TOD Land Length: 217 NM

Exportar CSV

Powered by Drupal - Modified by Danger4k